الصفحة الرئيسية
METAR-TAF:

METAR-TAF

مطار :

مطار جوليوس نيريري

دار السلام, تنزانيا

دائرة عرض: 06-52S, خط طول: 039-12E, ارتفاع: 55 متر

مراقبة الطقس الحالي

تاريخ ووقت الإصدار 4ساعات و 28 دقيقة قبل الساعة 20:00UTC
ريح 5 عقدة من الجنوب الغربي
درجة الحرارة 25°درجة مئوية
الرطوبة 74%
ضغط 1017 hPa
الرؤية 10 كم أو أكثر
الغيوم لا تقل 1500 م ولا وجود لمزنة ركامية السحاب الأسود

METAR: HTDA 172000Z 22005KT CAVOK 25/20 Q1017 NOSIG

زمن: 03:28 (00:28 UTC)

توقعات

تاريخ ووقت الإصدار 1ساعة و 28 دقيقة قبل الساعة 23:00UTC
التوقعات صالحة من18 الساعة 00 UTC إلى 19 الساعة 06 UTC
ريح 5 عقدة من الغرب/الجنوب الغربي
الرؤية 10 كم أو أكثر
غيوم متفرقة على ارتفاع 1300 قدم
أصبح
من 18 الساعة 07 UTC إلى 18 الساعة 10 UTC
ريح 15 عقدة من الجنوب
أصبح
من 18 الساعة 18 UTC إلى 18 الساعة 20 UTC
ريح 5 عقدة من الجنوب الغربي

TAF: HTDA 172300Z 1800/1906 24005KT 9999 SCT013 BECMG 1807/1810 18015KT BECMG 1818/1820 22005KT

أرصاد الطقس والتوقعات من أكثر من 4000 مطار (تقارير الطقس للمطار METAR والتنبؤ بالطقس بالمطارTAF).

المحطات المتاحة هي النقط الصفراء والحمراء على الخريطة.

حرك المؤشر فوق النقطة لمعرفة اسم المحطة.

ثم انقر لمعرفة أرصاد وتوقعات الطقس.

لتغيير الخارطة: اضغط على الأزرار الخضراء مع رمز الصليب الأسود للتكبير. على الزر الأخضر مع شرطة للتصغير، أو على الأسهم الخضراء للخرائط المجاورة.


METAR-TAF: